sensor_id;sensor_type;location;lat;lon;timestamp;pressure;altitude;pressure_sealevel;temperature;humidity
17260;BME280;8746;49.230;9.220;2024-03-08T00:00:28;99890.47;;;2.90;100.00
17260;BME280;8746;49.230;9.220;2024-03-08T00:02:54;99892.25;;;2.86;100.00
17260;BME280;8746;49.230;9.220;2024-03-08T00:05:20;99885.34;;;2.78;100.00
17260;BME280;8746;49.230;9.220;2024-03-08T00:07:45;99886.31;;;2.70;100.00
17260;BME280;8746;49.230;9.220;2024-03-08T00:10:12;99878.56;;;2.64;100.00
17260;BME280;8746;49.230;9.220;2024-03-08T00:12:42;99887.16;;;2.72;100.00
17260;BME280;8746;49.230;9.220;2024-03-08T00:15:14;99881.97;;;2.71;100.00
17260;BME280;8746;49.230;9.220;2024-03-08T00:17:40;99887.25;;;2.63;100.00
17260;BME280;8746;49.230;9.220;2024-03-08T00:20:06;99877.72;;;2.61;100.00
17260;BME280;8746;49.230;9.220;2024-03-08T00:22:36;99884.69;;;2.59;100.00
17260;BME280;8746;49.230;9.220;2024-03-08T00:25:05;99881.22;;;2.56;100.00
17260;BME280;8746;49.230;9.220;2024-03-08T00:27:31;99874.28;;;2.54;100.00
17260;BME280;8746;49.230;9.220;2024-03-08T00:29:59;99883.03;;;2.45;100.00
17260;BME280;8746;49.230;9.220;2024-03-08T00:32:25;99873.47;;;2.46;100.00
17260;BME280;8746;49.230;9.220;2024-03-08T00:34:52;99868.31;;;2.43;100.00
17260;BME280;8746;49.230;9.220;2024-03-08T00:37:17;99869.22;;;2.40;100.00
17260;BME280;8746;49.230;9.220;2024-03-08T00:39:43;99865.78;;;2.32;100.00
17260;BME280;8746;49.230;9.220;2024-03-08T00:42:08;99863.16;;;2.35;100.00
17260;BME280;8746;49.230;9.220;2024-03-08T00:44:33;99864.94;;;2.28;100.00
17260;BME280;8746;49.230;9.220;2024-03-08T00:46:59;99858.91;;;2.28;100.00
17260;BME280;8746;49.230;9.220;2024-03-08T00:49:24;99863.25;;;2.24;100.00
17260;BME280;8746;49.230;9.220;2024-03-08T00:51:50;99864.16;;;2.18;100.00
17260;BME280;8746;49.230;9.220;2024-03-08T00:54:15;99858.06;;;2.21;100.00
17260;BME280;8746;49.230;9.220;2024-03-08T00:56:41;99860.72;;;2.18;100.00
17260;BME280;8746;49.230;9.220;2024-03-08T00:59:07;99846.84;;;2.14;100.00
17260;BME280;8746;49.230;9.220;2024-03-08T01:01:32;99845.97;;;2.14;100.00
17260;BME280;8746;49.230;9.220;2024-03-08T01:03:58;99840.81;;;2.06;100.00
17260;BME280;8746;49.230;9.220;2024-03-08T01:06:23;99847.75;;;2.08;100.00
17260;BME280;8746;49.230;9.220;2024-03-08T01:08:49;99840.81;;;2.07;100.00
17260;BME280;8746;49.230;9.220;2024-03-08T01:11:17;99842.53;;;2.08;100.00
17260;BME280;8746;49.230;9.220;2024-03-08T01:13:42;99833.91;;;2.00;100.00
17260;BME280;8746;49.230;9.220;2024-03-08T01:16:07;99833.91;;;2.03;100.00
17260;BME280;8746;49.230;9.220;2024-03-08T01:18:33;99831.34;;;1.94;100.00
17260;BME280;8746;49.230;9.220;2024-03-08T01:20:58;99830.47;;;1.98;100.00
17260;BME280;8746;49.230;9.220;2024-03-08T01:23:23;99828.72;;;2.00;100.00
17260;BME280;8746;49.230;9.220;2024-03-08T01:25:49;99824.38;;;1.99;100.00
17260;BME280;8746;49.230;9.220;2024-03-08T01:28:22;99824.38;;;1.99;100.00
17260;BME280;8746;49.230;9.220;2024-03-08T01:30:47;99826.09;;;2.00;100.00
17260;BME280;8746;49.230;9.220;2024-03-08T01:33:14;99818.34;;;1.94;100.00
17260;BME280;8746;49.230;9.220;2024-03-08T01:35:39;99814.03;;;1.91;100.00
17260;BME280;8746;49.230;9.220;2024-03-08T01:38:06;99808.03;;;1.85;100.00
17260;BME280;8746;49.230;9.220;2024-03-08T01:40:32;99818.50;;;1.71;100.00
17260;BME280;8746;49.230;9.220;2024-03-08T01:42:57;99808.13;;;1.69;100.00
17260;BME280;8746;49.230;9.220;2024-03-08T01:45:22;99808.13;;;1.68;100.00
17260;BME280;8746;49.230;9.220;2024-03-08T01:47:48;99795.16;;;1.62;100.00
17260;BME280;8746;49.230;9.220;2024-03-08T01:50:13;99802.94;;;1.63;100.00
17260;BME280;8746;49.230;9.220;2024-03-08T01:52:39;99798.63;;;1.60;100.00
17260;BME280;8746;49.230;9.220;2024-03-08T01:55:05;99802.94;;;1.60;100.00
17260;BME280;8746;49.230;9.220;2024-03-08T01:57:32;99803.81;;;1.59;100.00
17260;BME280;8746;49.230;9.220;2024-03-08T02:00:02;99794.31;;;1.58;100.00
17260;BME280;8746;49.230;9.220;2024-03-08T02:02:31;99786.53;;;1.55;100.00
17260;BME280;8746;49.230;9.220;2024-03-08T02:04:57;99782.19;;;1.54;100.00
17260;BME280;8746;49.230;9.220;2024-03-08T02:07:22;99774.44;;;1.48;100.00
17260;BME280;8746;49.230;9.220;2024-03-08T02:09:48;99770.09;;;1.50;100.00
17260;BME280;8746;49.230;9.220;2024-03-08T02:12:13;99765.75;;;1.49;100.00
17260;BME280;8746;49.230;9.220;2024-03-08T02:14:38;99763.16;;;1.49;100.00
17260;BME280;8746;49.230;9.220;2024-03-08T02:17:05;99764.91;;;1.50;100.00
17260;BME280;8746;49.230;9.220;2024-03-08T02:19:30;99747.53;;;1.50;100.00
17260;BME280;8746;49.230;9.220;2024-03-08T02:21:56;99760.56;;;1.49;100.00
17260;BME280;8746;49.230;9.220;2024-03-08T02:24:22;99746.72;;;1.45;100.00
17260;BME280;8746;49.230;9.220;2024-03-08T02:26:48;99745.84;;;1.48;100.00
17260;BME280;8746;49.230;9.220;2024-03-08T02:29:14;99750.19;;;1.47;100.00
17260;BME280;8746;49.230;9.220;2024-03-08T02:31:40;99751.91;;;1.45;100.00
17260;BME280;8746;49.230;9.220;2024-03-08T02:34:05;99743.22;;;1.49;100.00
17260;BME280;8746;49.230;9.220;2024-03-08T02:36:30;99744.94;;;1.53;100.00
17260;BME280;8746;49.230;9.220;2024-03-08T02:39:03;99736.31;;;1.45;100.00
17260;BME280;8746;49.230;9.220;2024-03-08T02:41:29;99736.34;;;1.43;100.00
17260;BME280;8746;49.230;9.220;2024-03-08T02:43:54;99735.47;;;1.44;100.00
17260;BME280;8746;49.230;9.220;2024-03-08T02:46:20;99736.38;;;1.36;100.00
17260;BME280;8746;49.230;9.220;2024-03-08T02:48:45;99730.34;;;1.34;100.00
17260;BME280;8746;49.230;9.220;2024-03-08T02:51:12;99737.25;;;1.36;100.00
17260;BME280;8746;49.230;9.220;2024-03-08T02:53:38;99729.44;;;1.36;100.00
17260;BME280;8746;49.230;9.220;2024-03-08T02:56:04;99724.22;;;1.41;100.00
17260;BME280;8746;49.230;9.220;2024-03-08T02:58:33;99727.69;;;1.37;100.00
17260;BME280;8746;49.230;9.220;2024-03-08T03:00:58;99717.34;;;1.34;100.00
17260;BME280;8746;49.230;9.220;2024-03-08T03:03:24;99725.13;;;1.35;100.00
17260;BME280;8746;49.230;9.220;2024-03-08T03:05:49;99722.50;;;1.37;100.00
17260;BME280;8746;49.230;9.220;2024-03-08T03:08:15;99724.28;;;1.32;100.00
17260;BME280;8746;49.230;9.220;2024-03-08T03:10:42;99714.75;;;1.34;100.00
17260;BME280;8746;49.230;9.220;2024-03-08T03:13:08;99706.94;;;1.31;100.00
17260;BME280;8746;49.230;9.220;2024-03-08T03:15:33;99713.03;;;1.31;100.00
17260;BME280;8746;49.230;9.220;2024-03-08T03:17:59;99709.56;;;1.32;100.00
17260;BME280;8746;49.230;9.220;2024-03-08T03:20:25;99716.47;;;1.32;100.00
17260;BME280;8746;49.230;9.220;2024-03-08T03:22:58;99713.88;;;1.35;100.00
17260;BME280;8746;49.230;9.220;2024-03-08T03:25:26;99704.38;;;1.29;100.00
17260;BME280;8746;49.230;9.220;2024-03-08T03:27:54;99700.06;;;1.23;100.00
17260;BME280;8746;49.230;9.220;2024-03-08T03:30:22;99700.94;;;1.24;100.00
17260;BME280;8746;49.230;9.220;2024-03-08T03:32:50;99695.72;;;1.25;100.00
17260;BME280;8746;49.230;9.220;2024-03-08T03:35:20;99701.75;;;1.29;100.00
17260;BME280;8746;49.230;9.220;2024-03-08T03:37:48;99693.16;;;1.21;100.00
17260;BME280;8746;49.230;9.220;2024-03-08T03:40:29;99693.16;;;1.21;100.00
17260;BME280;8746;49.230;9.220;2024-03-08T03:42:55;99693.97;;;1.26;100.00
17260;BME280;8746;49.230;9.220;2024-03-08T03:45:21;99684.47;;;1.22;100.00
17260;BME280;8746;49.230;9.220;2024-03-08T03:47:46;99688.81;;;1.20;100.00
17260;BME280;8746;49.230;9.220;2024-03-08T03:50:12;99690.56;;;1.21;100.00
17260;BME280;8746;49.230;9.220;2024-03-08T03:52:37;99688.81;;;1.23;100.00
17260;BME280;8746;49.230;9.220;2024-03-08T03:55:03;99683.63;;;1.20;100.00
17260;BME280;8746;49.230;9.220;2024-03-08T03:57:30;99687.97;;;1.18;100.00
17260;BME280;8746;49.230;9.220;2024-03-08T03:59:55;99680.19;;;1.15;100.00
17260;BME280;8746;49.230;9.220;2024-03-08T04:02:20;99678.47;;;1.14;100.00
17260;BME280;8746;49.230;9.220;2024-03-08T04:04:47;99669.78;;;1.18;100.00
17260;BME280;8746;49.230;9.220;2024-03-08T04:07:13;99670.66;;;1.14;100.00
17260;BME280;8746;49.230;9.220;2024-03-08T04:09:38;99679.34;;;1.11;100.00
17260;BME280;8746;49.230;9.220;2024-03-08T04:12:04;99672.44;;;1.08;100.00
17260;BME280;8746;49.230;9.220;2024-03-08T04:14:30;99671.56;;;1.09;100.00
17260;BME280;8746;49.230;9.220;2024-03-08T04:16:55;99677.63;;;1.08;100.00
17260;BME280;8746;49.230;9.220;2024-03-08T04:19:21;99677.66;;;1.07;100.00
17260;BME280;8746;49.230;9.220;2024-03-08T04:21:47;99669.84;;;1.11;100.00
17260;BME280;8746;49.230;9.220;2024-03-08T04:24:13;99675.03;;;1.11;100.00
17260;BME280;8746;49.230;9.220;2024-03-08T04:26:38;99675.91;;;1.07;100.00
17260;BME280;8746;49.230;9.220;2024-03-08T04:29:03;99672.50;;;1.01;100.00
17260;BME280;8746;49.230;9.220;2024-03-08T04:31:28;99674.19;;;1.05;100.00
17260;BME280;8746;49.230;9.220;2024-03-08T04:33:56;99666.41;;;1.03;100.00
17260;BME280;8746;49.230;9.220;2024-03-08T04:36:21;99669.88;;;1.05;100.00
17260;BME280;8746;49.230;9.220;2024-03-08T04:38:47;99669.00;;;1.08;100.00
17260;BME280;8746;49.230;9.220;2024-03-08T04:41:12;99669.88;;;1.05;100.00
17260;BME280;8746;49.230;9.220;2024-03-08T04:43:38;99667.25;;;1.04;100.00
17260;BME280;8746;49.230;9.220;2024-03-08T04:46:04;99659.47;;;1.02;100.00
17260;BME280;8746;49.230;9.220;2024-03-08T04:48:30;99657.75;;;1.01;100.00
17260;BME280;8746;49.230;9.220;2024-03-08T04:50:56;99649.16;;;0.94;100.00
17260;BME280;8746;49.230;9.220;2024-03-08T04:53:21;99657.81;;;0.93;100.00
17260;BME280;8746;49.230;9.220;2024-03-08T04:55:47;99650.00;;;0.95;100.00
17260;BME280;8746;49.230;9.220;2024-03-08T04:58:12;99646.53;;;0.96;100.00
17260;BME280;8746;49.230;9.220;2024-03-08T05:00:37;99653.47;;;0.97;100.00
17260;BME280;8746;49.230;9.220;2024-03-08T05:03:04;99652.59;;;0.95;100.00
17260;BME280;8746;49.230;9.220;2024-03-08T05:05:30;99648.28;;;0.92;100.00
17260;BME280;8746;49.230;9.220;2024-03-08T05:07:55;99656.06;;;0.97;100.00
17260;BME280;8746;49.230;9.220;2024-03-08T05:10:21;99652.56;;;0.96;100.00
17260;BME280;8746;49.230;9.220;2024-03-08T05:12:47;99647.38;;;1.00;100.00
17260;BME280;8746;49.230;9.220;2024-03-08T05:15:12;99654.31;;;0.99;100.00
17260;BME280;8746;49.230;9.220;2024-03-08T05:17:37;99648.22;;;1.08;100.00
17260;BME280;8746;49.230;9.220;2024-03-08T05:20:05;99645.63;;;1.00;100.00
17260;BME280;8746;49.230;9.220;2024-03-08T05:22:33;99648.25;;;0.99;100.00
17260;BME280;8746;49.230;9.220;2024-03-08T05:24:58;99657.78;;;0.95;100.00
17260;BME280;8746;49.230;9.220;2024-03-08T05:27:24;99646.53;;;0.93;100.00
17260;BME280;8746;49.230;9.220;2024-03-08T05:29:49;99650.88;;;0.94;100.00
17260;BME280;8746;49.230;9.220;2024-03-08T05:32:14;99641.34;;;0.91;100.00
17260;BME280;8746;49.230;9.220;2024-03-08T05:34:39;99646.56;;;0.90;100.00
17260;BME280;8746;49.230;9.220;2024-03-08T05:37:05;99646.59;;;0.88;100.00
17260;BME280;8746;49.230;9.220;2024-03-08T05:39:32;99640.56;;;0.85;100.00
17260;BME280;8746;49.230;9.220;2024-03-08T05:41:57;99650.06;;;0.87;100.00
17260;BME280;8746;49.230;9.220;2024-03-08T05:44:23;99648.28;;;0.92;100.00
17260;BME280;8746;49.230;9.220;2024-03-08T05:46:48;99645.66;;;0.94;100.00
17260;BME280;8746;49.230;9.220;2024-03-08T05:49:14;99643.97;;;0.90;100.00
17260;BME280;8746;49.230;9.220;2024-03-08T05:51:40;99635.31;;;0.91;100.00
17260;BME280;8746;49.230;9.220;2024-03-08T05:54:12;99634.44;;;0.90;100.00
17260;BME280;8746;49.230;9.220;2024-03-08T05:56:39;99642.25;;;0.89;100.00
17260;BME280;8746;49.230;9.220;2024-03-08T05:59:07;99641.34;;;0.96;100.00
17260;BME280;8746;49.230;9.220;2024-03-08T06:01:32;99643.03;;;1.00;100.00
17260;BME280;8746;49.230;9.220;2024-03-08T06:04:01;99650.03;;;0.89;100.00
17260;BME280;8746;49.230;9.220;2024-03-08T06:06:27;99637.94;;;0.83;100.00
17260;BME280;8746;49.230;9.220;2024-03-08T06:08:53;99632.75;;;0.82;100.00
17260;BME280;8746;49.230;9.220;2024-03-08T06:11:19;99632.72;;;0.91;100.00
17260;BME280;8746;49.230;9.220;2024-03-08T06:13:48;99637.91;;;0.89;100.00
17260;BME280;8746;49.230;9.220;2024-03-08T06:16:15;99630.94;;;0.98;100.00
17260;BME280;8746;49.230;9.220;2024-03-08T06:18:40;99638.75;;;0.96;100.00
17260;BME280;8746;49.230;9.220;2024-03-08T06:21:07;99635.19;;;1.06;100.00
17260;BME280;8746;49.230;9.220;2024-03-08T06:23:37;99631.69;;;1.14;100.00
17260;BME280;8746;49.230;9.220;2024-03-08T06:26:04;99628.25;;;1.13;100.00
17260;BME280;8746;49.230;9.220;2024-03-08T06:28:29;99627.38;;;1.14;100.00
17260;BME280;8746;49.230;9.220;2024-03-08T06:30:54;99628.19;;;1.21;100.00
17260;BME280;8746;49.230;9.220;2024-03-08T06:33:20;99627.31;;;1.22;100.00
17260;BME280;8746;49.230;9.220;2024-03-08T06:35:45;99626.41;;;1.29;100.00
17260;BME280;8746;49.230;9.220;2024-03-08T06:38:10;99633.25;;;1.39;100.00
17260;BME280;8746;49.230;9.220;2024-03-08T06:40:36;99637.53;;;1.48;100.00
17260;BME280;8746;49.230;9.220;2024-03-08T06:43:02;99626.25;;;1.48;100.00
17260;BME280;8746;49.230;9.220;2024-03-08T06:45:31;99637.47;;;1.54;100.00
17260;BME280;8746;49.230;9.220;2024-03-08T06:47:56;99631.31;;;1.63;100.00
17260;BME280;8746;49.230;9.220;2024-03-08T06:50:22;99633.00;;;1.70;100.00
17260;BME280;8746;49.230;9.220;2024-03-08T06:52:47;99632.97;;;1.73;100.00
17260;BME280;8746;49.230;9.220;2024-03-08T06:55:16;99627.63;;;1.86;100.00
17260;BME280;8746;49.230;9.220;2024-03-08T06:57:42;99637.09;;;1.96;100.00
17260;BME280;8746;49.230;9.220;2024-03-08T07:00:08;99636.19;;;1.99;100.00
17260;BME280;8746;49.230;9.220;2024-03-08T07:02:40;99636.25;;;1.92;100.00
17260;BME280;8746;49.230;9.220;2024-03-08T07:05:06;99636.97;;;2.05;100.00
17260;BME280;8746;49.230;9.220;2024-03-08T07:07:35;99642.84;;;2.26;100.00
17260;BME280;8746;49.230;9.220;2024-03-08T07:10:01;99632.28;;;2.38;100.00
17260;BME280;8746;49.230;9.220;2024-03-08T07:12:26;99633.09;;;2.42;100.00
17260;BME280;8746;49.230;9.220;2024-03-08T07:14:51;99637.47;;;2.42;100.00
17260;BME280;8746;49.230;9.220;2024-03-08T07:17:16;99638.47;;;2.28;100.00
17260;BME280;8746;49.230;9.220;2024-03-08T07:19:42;99642.09;;;2.15;100.00
17260;BME280;8746;49.230;9.220;2024-03-08T07:22:08;99640.41;;;2.09;100.00
17260;BME280;8746;49.230;9.220;2024-03-08T07:24:37;99647.25;;;2.19;100.00
17260;BME280;8746;49.230;9.220;2024-03-08T07:27:04;99640.19;;;2.31;100.00
17260;BME280;8746;49.230;9.220;2024-03-08T07:29:30;99640.00;;;2.45;100.00
17260;BME280;8746;49.230;9.220;2024-03-08T07:31:55;99633.22;;;2.34;100.00
17260;BME280;8746;49.230;9.220;2024-03-08T07:34:39;99635.03;;;2.28;100.00
17260;BME280;8746;49.230;9.220;2024-03-08T07:37:05;99631.66;;;2.16;100.00
17260;BME280;8746;49.230;9.220;2024-03-08T07:39:36;99627.16;;;2.32;100.00
17260;BME280;8746;49.230;9.220;2024-03-08T07:42:01;99621.94;;;2.34;100.00
17260;BME280;8746;49.230;9.220;2024-03-08T07:44:27;99629.81;;;2.28;100.00
17260;BME280;8746;49.230;9.220;2024-03-08T07:46:52;99629.69;;;2.38;100.00
17260;BME280;8746;49.230;9.220;2024-03-08T07:49:18;99624.53;;;2.32;100.00
17260;BME280;8746;49.230;9.220;2024-03-08T07:51:43;99621.19;;;2.24;100.00
17260;BME280;8746;49.230;9.220;2024-03-08T07:54:08;99618.50;;;2.30;100.00
17260;BME280;8746;49.230;9.220;2024-03-08T07:56:34;99605.41;;;2.38;100.00
17260;BME280;8746;49.230;9.220;2024-03-08T07:59:02;99607.94;;;2.43;100.00
17260;BME280;8746;49.230;9.220;2024-03-08T08:01:29;99607.78;;;2.55;100.00
17260;BME280;8746;49.230;9.220;2024-03-08T08:03:56;99600.69;;;2.66;100.00
17260;BME280;8746;49.230;9.220;2024-03-08T08:06:21;99595.41;;;2.72;100.00
17260;BME280;8746;49.230;9.220;2024-03-08T08:08:47;99590.34;;;2.63;100.00
17260;BME280;8746;49.230;9.220;2024-03-08T08:11:12;99591.22;;;2.59;100.00
17260;BME280;8746;49.230;9.220;2024-03-08T08:13:38;99594.56;;;2.69;100.00
17260;BME280;8746;49.230;9.220;2024-03-08T08:16:04;99590.81;;;2.88;100.00
17260;BME280;8746;49.230;9.220;2024-03-08T08:18:31;99583.00;;;2.90;100.00
17260;BME280;8746;49.230;9.220;2024-03-08T08:20:58;99583.97;;;2.83;100.00
17260;BME280;8746;49.230;9.220;2024-03-08T08:23:25;99571.63;;;2.97;100.00
17260;BME280;8746;49.230;9.220;2024-03-08T08:25:50;99579.41;;;2.99;100.00
17260;BME280;8746;49.230;9.220;2024-03-08T08:28:18;99578.44;;;3.04;100.00
17260;BME280;8746;49.230;9.220;2024-03-08T08:30:44;99577.72;;;2.96;100.00
17260;BME280;8746;49.230;9.220;2024-03-08T08:33:09;99579.59;;;2.85;100.00
17260;BME280;8746;49.230;9.220;2024-03-08T08:35:36;99576.97;;;2.86;100.00
17260;BME280;8746;49.230;9.220;2024-03-08T08:38:02;99576.97;;;2.86;100.00
17260;BME280;8746;49.230;9.220;2024-03-08T08:40:28;99577.72;;;2.96;100.00
17260;BME280;8746;49.230;9.220;2024-03-08T08:42:56;99568.00;;;3.04;100.00
17260;BME280;8746;49.230;9.220;2024-03-08T08:45:23;99571.44;;;3.10;100.00
17260;BME280;8746;49.230;9.220;2024-03-08T08:47:48;99562.63;;;3.17;100.00
17260;BME280;8746;49.230;9.220;2024-03-08T08:50:15;99578.28;;;3.14;100.00
17260;BME280;8746;49.230;9.220;2024-03-08T08:52:41;99571.38;;;3.11;100.00
17260;BME280;8746;49.230;9.220;2024-03-08T08:55:10;99566.06;;;3.17;99.91
17260;BME280;8746;49.230;9.220;2024-03-08T08:57:40;99567.03;;;3.12;99.75
17260;BME280;8746;49.230;9.220;2024-03-08T09:00:06;99570.50;;;3.11;100.00
17260;BME280;8746;49.230;9.220;2024-03-08T09:02:39;99557.47;;;3.11;100.00
17260;BME280;8746;49.230;9.220;2024-03-08T09:05:06;99562.66;;;3.14;99.75
17260;BME280;8746;49.230;9.220;2024-03-08T09:07:33;99569.75;;;3.04;99.54
17260;BME280;8746;49.230;9.220;2024-03-08T09:09:59;99556.47;;;3.21;99.98
17260;BME280;8746;49.230;9.220;2024-03-08T09:12:25;99551.13;;;3.30;99.63
17260;BME280;8746;49.230;9.220;2024-03-08T09:14:50;99550.22;;;3.30;98.15
17260;BME280;8746;49.230;9.220;2024-03-08T09:17:16;99555.91;;;3.53;97.61
17260;BME280;8746;49.230;9.220;2024-03-08T09:19:46;99541.16;;;3.51;97.11
17260;BME280;8746;49.230;9.220;2024-03-08T09:22:12;99526.44;;;3.50;96.98
17260;BME280;8746;49.230;9.220;2024-03-08T09:24:38;99524.38;;;3.67;97.20
17260;BME280;8746;49.230;9.220;2024-03-08T09:27:04;99519.25;;;4.07;96.84
17260;BME280;8746;49.230;9.220;2024-03-08T09:29:29;99519.38;;;4.00;95.70
17260;BME280;8746;49.230;9.220;2024-03-08T09:31:54;99518.78;;;3.86;94.83
17260;BME280;8746;49.230;9.220;2024-03-08T09:34:20;99517.34;;;4.13;95.38
17260;BME280;8746;49.230;9.220;2024-03-08T09:36:45;99509.97;;;4.34;94.70
17260;BME280;8746;49.230;9.220;2024-03-08T09:39:11;99515.47;;;4.62;93.01
17260;BME280;8746;49.230;9.220;2024-03-08T09:41:42;99496.13;;;4.30;91.76
17260;BME280;8746;49.230;9.220;2024-03-08T09:44:09;99502.13;;;4.36;92.14
17260;BME280;8746;49.230;9.220;2024-03-08T09:46:34;99502.31;;;4.65;94.26
17260;BME280;8746;49.230;9.220;2024-03-08T09:48:59;99496.34;;;4.60;90.36
17260;BME280;8746;49.230;9.220;2024-03-08T09:51:28;99502.34;;;4.25;91.75
17260;BME280;8746;49.230;9.220;2024-03-08T09:53:54;99496.06;;;4.33;92.63
17260;BME280;8746;49.230;9.220;2024-03-08T09:56:21;99504.84;;;4.31;92.27
17260;BME280;8746;49.230;9.220;2024-03-08T09:58:48;99491.16;;;4.57;92.03
17260;BME280;8746;49.230;9.220;2024-03-08T10:01:33;99491.81;;;4.67;90.81
17260;BME280;8746;49.230;9.220;2024-03-08T10:03:58;99486.94;;;4.89;91.24
17260;BME280;8746;49.230;9.220;2024-03-08T10:06:24;99483.91;;;5.08;89.97
17260;BME280;8746;49.230;9.220;2024-03-08T10:08:50;99489.53;;;4.89;88.91
17260;BME280;8746;49.230;9.220;2024-03-08T10:11:19;99483.00;;;5.42;87.86
17260;BME280;8746;49.230;9.220;2024-03-08T10:13:45;99476.09;;;5.39;86.33
17260;BME280;8746;49.230;9.220;2024-03-08T10:16:12;99472.38;;;5.15;85.71
17260;BME280;8746;49.230;9.220;2024-03-08T10:18:37;99472.63;;;5.39;86.57
17260;BME280;8746;49.230;9.220;2024-03-08T10:21:06;99465.41;;;5.80;83.68
17260;BME280;8746;49.230;9.220;2024-03-08T10:23:33;99466.22;;;5.51;84.59
17260;BME280;8746;49.230;9.220;2024-03-08T10:26:17;99461.53;;;5.62;85.06
17260;BME280;8746;49.230;9.220;2024-03-08T10:28:47;99463.13;;;6.01;84.46
17260;BME280;8746;49.230;9.220;2024-03-08T10:31:16;99454.53;;;5.62;83.64
17260;BME280;8746;49.230;9.220;2024-03-08T10:33:41;99453.81;;;5.57;83.85
17260;BME280;8746;49.230;9.220;2024-03-08T10:36:07;99448.56;;;5.57;84.59
17260;BME280;8746;49.230;9.220;2024-03-08T10:38:38;99441.69;;;6.16;82.85
17260;BME280;8746;49.230;9.220;2024-03-08T10:41:06;99446.78;;;5.91;81.90
17260;BME280;8746;49.230;9.220;2024-03-08T10:46:35;99433.06;;;6.41;80.83
17260;BME280;8746;49.230;9.220;2024-03-08T10:49:08;99436.22;;;7.06;78.99
17260;BME280;8746;49.230;9.220;2024-03-08T10:51:38;99425.34;;;7.67;77.08
17260;BME280;8746;49.230;9.220;2024-03-08T10:54:07;99424.00;;;7.56;77.41
17260;BME280;8746;49.230;9.220;2024-03-08T10:56:35;99421.84;;;7.67;74.68
17260;BME280;8746;49.230;9.220;2024-03-08T10:59:00;99422.78;;;7.15;76.85
17260;BME280;8746;49.230;9.220;2024-03-08T11:01:26;99418.19;;;7.71;75.36
17260;BME280;8746;49.230;9.220;2024-03-08T11:03:51;99418.88;;;7.76;74.56
17260;BME280;8746;49.230;9.220;2024-03-08T11:08:48;99411.25;;;8.82;72.54
17260;BME280;8746;49.230;9.220;2024-03-08T11:11:29;99394.25;;;8.48;72.46
17260;BME280;8746;49.230;9.220;2024-03-08T11:13:56;99398.91;;;8.18;71.59
17260;BME280;8746;49.230;9.220;2024-03-08T11:18:55;99395.22;;;8.00;74.09
17260;BME280;8746;49.230;9.220;2024-03-08T11:21:24;99389.56;;;8.33;72.47
17260;BME280;8746;49.230;9.220;2024-03-08T11:24:00;99386.44;;;8.01;72.52
17260;BME280;8746;49.230;9.220;2024-03-08T11:26:29;99377.63;;;8.48;72.09
17260;BME280;8746;49.230;9.220;2024-03-08T11:34:32;99362.75;;;8.25;69.65
17260;BME280;8746;49.230;9.220;2024-03-08T11:37:03;99367.69;;;8.55;70.21
17260;BME280;8746;49.230;9.220;2024-03-08T11:39:29;99360.91;;;8.92;72.17
17260;BME280;8746;49.230;9.220;2024-03-08T11:41:55;99363.28;;;8.98;67.62
17260;BME280;8746;49.230;9.220;2024-03-08T11:44:21;99351.47;;;8.43;71.84
17260;BME280;8746;49.230;9.220;2024-03-08T11:46:46;99359.06;;;8.29;71.97
17260;BME280;8746;49.230;9.220;2024-03-08T11:49:15;99360.53;;;7.92;72.29
17260;BME280;8746;49.230;9.220;2024-03-08T11:51:41;99347.94;;;8.00;72.44
17260;BME280;8746;49.230;9.220;2024-03-08T11:54:11;99343.56;;;8.23;72.71
17260;BME280;8746;49.230;9.220;2024-03-08T11:56:38;99340.25;;;8.17;72.78
17260;BME280;8746;49.230;9.220;2024-03-08T11:59:03;99339.13;;;8.23;72.67
17260;BME280;8746;49.230;9.220;2024-03-08T12:01:30;99325.59;;;7.90;71.80
17260;BME280;8746;49.230;9.220;2024-03-08T12:03:57;99317.59;;;7.93;73.02
17260;BME280;8746;49.230;9.220;2024-03-08T12:06:24;99312.78;;;8.04;73.46
17260;BME280;8746;49.230;9.220;2024-03-08T12:08:50;99314.53;;;8.48;73.59
17260;BME280;8746;49.230;9.220;2024-03-08T12:11:17;99310.56;;;8.15;72.96
17260;BME280;8746;49.230;9.220;2024-03-08T12:13:44;99302.72;;;8.36;72.56
17260;BME280;8746;49.230;9.220;2024-03-08T12:16:11;99306.41;;;8.32;72.41
17260;BME280;8746;49.230;9.220;2024-03-08T12:18:38;99295.63;;;8.38;73.00
17260;BME280;8746;49.230;9.220;2024-03-08T12:23:31;99284.13;;;8.41;70.81
17260;BME280;8746;49.230;9.220;2024-03-08T12:25:56;99293.00;;;8.38;70.65
17260;BME280;8746;49.230;9.220;2024-03-08T12:28:22;99281.81;;;8.33;71.15
17260;BME280;8746;49.230;9.220;2024-03-08T12:30:49;99278.91;;;8.39;71.17
17260;BME280;8746;49.230;9.220;2024-03-08T12:33:16;99276.94;;;8.24;71.11
17260;BME280;8746;49.230;9.220;2024-03-08T12:35:50;99271.44;;;8.30;70.86
17260;BME280;8746;49.230;9.220;2024-03-08T12:38:16;99269.34;;;8.38;72.05
17260;BME280;8746;49.230;9.220;2024-03-08T12:40:41;99267.00;;;8.53;71.71
17260;BME280;8746;49.230;9.220;2024-03-08T12:43:07;99253.47;;;8.62;71.73
17260;BME280;8746;49.230;9.220;2024-03-08T12:45:32;99249.44;;;8.94;72.30
17260;BME280;8746;49.230;9.220;2024-03-08T12:47:58;99239.47;;;9.01;72.17
17260;BME280;8746;49.230;9.220;2024-03-08T12:50:24;99235.16;;;8.79;71.10
17260;BME280;8746;49.230;9.220;2024-03-08T12:52:50;99244.00;;;8.58;70.14
17260;BME280;8746;49.230;9.220;2024-03-08T12:55:18;99242.59;;;8.70;70.08
17260;BME280;8746;49.230;9.220;2024-03-08T12:57:43;99235.06;;;8.62;70.14
17260;BME280;8746;49.230;9.220;2024-03-08T13:00:09;99225.34;;;8.64;70.29
17260;BME280;8746;49.230;9.220;2024-03-08T13:02:39;99224.72;;;8.78;70.97
17260;BME280;8746;49.230;9.220;2024-03-08T13:05:05;99218.66;;;8.76;70.33
17260;BME280;8746;49.230;9.220;2024-03-08T13:07:31;99209.38;;;8.88;69.71
17260;BME280;8746;49.230;9.220;2024-03-08T13:09:56;99202.50;;;8.85;69.09
17260;BME280;8746;49.230;9.220;2024-03-08T13:12:25;99196.59;;;8.99;69.67
17260;BME280;8746;49.230;9.220;2024-03-08T13:14:50;99192.72;;;9.08;71.44
17260;BME280;8746;49.230;9.220;2024-03-08T13:17:16;99190.19;;;9.05;68.86
17260;BME280;8746;49.230;9.220;2024-03-08T13:19:44;99193.41;;;9.11;68.53
17260;BME280;8746;49.230;9.220;2024-03-08T13:22:09;99192.19;;;9.19;69.42
17260;BME280;8746;49.230;9.220;2024-03-08T13:24:40;99186.56;;;9.07;68.82
17260;BME280;8746;49.230;9.220;2024-03-08T13:27:07;99185.16;;;9.00;68.28